sensor_id;sensor_type;location;lat;lon;timestamp;pressure;altitude;pressure_sealevel;temperature;humidity
46722;BME280;32455;43.430;23.136;2023-11-21T00:02:31;97865.63;;;5.51;100.00
46722;BME280;32455;43.430;23.136;2023-11-21T00:05:17;97875.63;;;5.84;100.00
46722;BME280;32455;43.430;23.136;2023-11-21T00:08:02;97869.59;;;5.62;100.00
46722;BME280;32455;43.430;23.136;2023-11-21T00:10:47;97872.81;;;5.50;100.00
46722;BME280;32455;43.430;23.136;2023-11-21T00:13:32;97853.66;;;5.34;100.00
46722;BME280;32455;43.430;23.136;2023-11-21T00:16:18;97860.13;;;5.18;100.00
46722;BME280;32455;43.430;23.136;2023-11-21T00:19:04;97872.88;;;5.22;100.00
46722;BME280;32455;43.430;23.136;2023-11-21T00:21:50;97862.28;;;5.01;100.00
46722;BME280;32455;43.430;23.136;2023-11-21T00:24:35;97864.13;;;5.00;100.00
46722;BME280;32455;43.430;23.136;2023-11-21T00:27:20;97870.09;;;5.09;100.00
46722;BME280;32455;43.430;23.136;2023-11-21T00:30:06;97872.91;;;5.01;100.00
46722;BME280;32455;43.430;23.136;2023-11-21T00:32:52;97857.16;;;4.99;100.00
46722;BME280;32455;43.430;23.136;2023-11-21T00:35:37;97877.41;;;5.28;100.00
46722;BME280;32455;43.430;23.136;2023-11-21T00:38:21;97870.28;;;5.36;100.00
46722;BME280;32455;43.430;23.136;2023-11-21T00:41:07;97874.69;;;5.57;100.00
46722;BME280;32455;43.430;23.136;2023-11-21T00:43:52;97874.78;;;5.76;100.00
46722;BME280;32455;43.430;23.136;2023-11-21T00:46:37;97873.91;;;5.69;100.00
46722;BME280;32455;43.430;23.136;2023-11-21T00:49:23;97865.34;;;5.74;100.00
46722;BME280;32455;43.430;23.136;2023-11-21T00:52:08;97861.06;;;5.80;100.00
46722;BME280;32455;43.430;23.136;2023-11-21T00:54:54;97864.81;;;5.98;100.00
46722;BME280;32455;43.430;23.136;2023-11-21T00:57:40;97873.03;;;5.97;100.00
46722;BME280;32455;43.430;23.136;2023-11-21T01:00:25;97868.03;;;5.81;100.00
46722;BME280;32455;43.430;23.136;2023-11-21T01:03:11;97861.06;;;5.80;100.00
46722;BME280;32455;43.430;23.136;2023-11-21T01:05:56;97849.31;;;5.67;100.00
46722;BME280;32455;43.430;23.136;2023-11-21T01:08:42;97849.44;;;5.46;100.00
46722;BME280;32455;43.430;23.136;2023-11-21T01:11:28;97855.63;;;5.60;100.00
46722;BME280;32455;43.430;23.136;2023-11-21T01:14:13;97862.91;;;5.79;100.00
46722;BME280;32455;43.430;23.136;2023-11-21T01:16:58;97867.25;;;5.87;100.00
46722;BME280;32455;43.430;23.136;2023-11-21T01:19:43;97859.22;;;5.80;100.00
46722;BME280;32455;43.430;23.136;2023-11-21T01:22:28;97852.84;;;5.74;100.00
46722;BME280;32455;43.430;23.136;2023-11-21T01:25:13;97835.50;;;5.44;100.00
46722;BME280;32455;43.430;23.136;2023-11-21T01:27:59;97851.13;;;5.60;100.00
46722;BME280;32455;43.430;23.136;2023-11-21T01:30:45;97854.31;;;5.84;100.00
46722;BME280;32455;43.430;23.136;2023-11-21T01:33:31;97855.13;;;5.84;100.00
46722;BME280;32455;43.430;23.136;2023-11-21T01:36:16;97851.81;;;5.82;100.00
46722;BME280;32455;43.430;23.136;2023-11-21T01:39:01;97847.91;;;5.71;100.00
46722;BME280;32455;43.430;23.136;2023-11-21T01:41:52;97840.72;;;5.65;100.00
46722;BME280;32455;43.430;23.136;2023-11-21T01:44:38;97850.88;;;5.48;100.00
46722;BME280;32455;43.430;23.136;2023-11-21T01:47:24;97825.94;;;5.21;100.00
46722;BME280;32455;43.430;23.136;2023-11-21T01:50:14;97833.16;;;5.27;100.00
46722;BME280;32455;43.430;23.136;2023-11-21T01:53:01;97832.56;;;5.32;100.00
46722;BME280;32455;43.430;23.136;2023-11-21T01:55:46;97830.88;;;5.24;100.00
46722;BME280;32455;43.430;23.136;2023-11-21T01:58:32;97823.91;;;5.23;100.00
46722;BME280;32455;43.430;23.136;2023-11-21T02:01:17;97822.75;;;5.05;100.00
46722;BME280;32455;43.430;23.136;2023-11-21T02:04:03;97813.13;;;4.97;100.00
46722;BME280;32455;43.430;23.136;2023-11-21T02:06:49;97826.50;;;5.10;100.00
46722;BME280;32455;43.430;23.136;2023-11-21T02:09:36;97825.91;;;4.80;100.00
46722;BME280;32455;43.430;23.136;2023-11-21T02:12:27;97826.09;;;4.78;100.00
46722;BME280;32455;43.430;23.136;2023-11-21T02:15:13;97821.41;;;4.81;100.00
46722;BME280;32455;43.430;23.136;2023-11-21T02:18:05;97829.47;;;4.94;100.00
46722;BME280;32455;43.430;23.136;2023-11-21T02:20:51;97836.06;;;4.98;100.00
46722;BME280;32455;43.430;23.136;2023-11-21T02:23:35;97831.56;;;5.05;100.00
46722;BME280;32455;43.430;23.136;2023-11-21T02:26:22;97835.97;;;5.19;100.00
46722;BME280;32455;43.430;23.136;2023-11-21T02:29:08;97834.66;;;5.09;100.00
46722;BME280;32455;43.430;23.136;2023-11-21T02:31:56;97828.06;;;5.39;100.00
46722;BME280;32455;43.430;23.136;2023-11-21T02:34:43;97825.16;;;5.82;100.00
46722;BME280;32455;43.430;23.136;2023-11-21T02:37:28;97835.06;;;5.95;100.00
46722;BME280;32455;43.430;23.136;2023-11-21T02:40:13;97828.19;;;6.47;100.00
46722;BME280;32455;43.430;23.136;2023-11-21T02:43:02;97828.38;;;6.59;100.00
46722;BME280;32455;43.430;23.136;2023-11-21T02:45:48;97838.63;;;6.22;100.00
46722;BME280;32455;43.430;23.136;2023-11-21T02:48:33;97830.97;;;5.99;100.00
46722;BME280;32455;43.430;23.136;2023-11-21T02:51:19;97837.53;;;6.03;100.00
46722;BME280;32455;43.430;23.136;2023-11-21T02:54:05;97829.44;;;5.76;100.00
46722;BME280;32455;43.430;23.136;2023-11-21T02:56:51;97832.06;;;5.63;100.00
46722;BME280;32455;43.430;23.136;2023-11-21T02:59:37;97835.81;;;5.75;100.00
46722;BME280;32455;43.430;23.136;2023-11-21T03:02:22;97828.66;;;5.83;100.00
46722;BME280;32455;43.430;23.136;2023-11-21T03:05:08;97831.41;;;5.96;100.00
46722;BME280;32455;43.430;23.136;2023-11-21T03:07:53;97832.84;;;6.12;100.00
46722;BME280;32455;43.430;23.136;2023-11-21T03:10:39;97820.16;;;6.27;100.00
46722;BME280;32455;43.430;23.136;2023-11-21T03:13:24;97817.50;;;6.53;100.00
46722;BME280;32455;43.430;23.136;2023-11-21T03:16:10;97829.59;;;6.83;100.00
46722;BME280;32455;43.430;23.136;2023-11-21T03:18:55;97808.59;;;7.06;100.00
46722;BME280;32455;43.430;23.136;2023-11-21T03:21:40;97815.38;;;7.09;100.00
46722;BME280;32455;43.430;23.136;2023-11-21T03:24:25;97804.91;;;7.00;100.00
46722;BME280;32455;43.430;23.136;2023-11-21T03:27:11;97800.81;;;7.11;100.00
46722;BME280;32455;43.430;23.136;2023-11-21T03:29:56;97797.81;;;7.39;100.00
46722;BME280;32455;43.430;23.136;2023-11-21T03:32:42;97787.19;;;7.19;100.00
46722;BME280;32455;43.430;23.136;2023-11-21T03:35:27;97787.34;;;7.38;100.00
46722;BME280;32455;43.430;23.136;2023-11-21T03:38:13;97798.28;;;7.30;100.00
46722;BME280;32455;43.430;23.136;2023-11-21T03:40:58;97802.03;;;7.09;100.00
46722;BME280;32455;43.430;23.136;2023-11-21T03:43:43;97799.72;;;7.19;100.00
46722;BME280;32455;43.430;23.136;2023-11-21T03:46:28;97814.25;;;7.43;100.00
46722;BME280;32455;43.430;23.136;2023-11-21T03:49:13;97814.59;;;7.60;100.00
46722;BME280;32455;43.430;23.136;2023-11-21T03:51:59;97824.13;;;7.94;100.00
46722;BME280;32455;43.430;23.136;2023-11-21T03:54:44;97816.69;;;7.96;100.00
46722;BME280;32455;43.430;23.136;2023-11-21T03:57:29;97823.00;;;8.08;100.00
46722;BME280;32455;43.430;23.136;2023-11-21T04:00:15;97832.03;;;8.14;100.00
46722;BME280;32455;43.430;23.136;2023-11-21T04:03:00;97832.84;;;8.14;100.00
46722;BME280;32455;43.430;23.136;2023-11-21T04:05:44;97840.06;;;8.14;100.00
46722;BME280;32455;43.430;23.136;2023-11-21T04:08:30;97838.47;;;8.06;100.00
46722;BME280;32455;43.430;23.136;2023-11-21T04:11:16;97835.63;;;7.94;100.00
46722;BME280;32455;43.430;23.136;2023-11-21T04:14:02;97836.28;;;7.90;100.00
46722;BME280;32455;43.430;23.136;2023-11-21T04:16:47;97834.50;;;7.70;100.00
46722;BME280;32455;43.430;23.136;2023-11-21T04:19:33;97830.00;;;7.64;100.00
46722;BME280;32455;43.430;23.136;2023-11-21T04:22:18;97816.53;;;7.39;100.00
46722;BME280;32455;43.430;23.136;2023-11-21T04:25:04;97821.06;;;7.45;100.00
46722;BME280;32455;43.430;23.136;2023-11-21T04:27:50;97826.28;;;7.72;100.00
46722;BME280;32455;43.430;23.136;2023-11-21T04:30:35;97814.31;;;7.81;100.00
46722;BME280;32455;43.430;23.136;2023-11-21T04:33:21;97818.13;;;7.92;100.00
46722;BME280;32455;43.430;23.136;2023-11-21T04:36:07;97820.81;;;7.92;100.00
46722;BME280;32455;43.430;23.136;2023-11-21T04:38:53;97819.00;;;7.86;100.00
46722;BME280;32455;43.430;23.136;2023-11-21T04:41:38;97795.19;;;7.77;100.00
46722;BME280;32455;43.430;23.136;2023-11-21T04:44:28;97795.22;;;7.71;100.00
46722;BME280;32455;43.430;23.136;2023-11-21T04:47:13;97803.28;;;7.64;100.00
46722;BME280;32455;43.430;23.136;2023-11-21T04:49:58;97799.88;;;7.82;100.00
46722;BME280;32455;43.430;23.136;2023-11-21T04:52:44;97800.78;;;7.69;100.00
46722;BME280;32455;43.430;23.136;2023-11-21T04:55:30;97789.31;;;7.56;100.00
46722;BME280;32455;43.430;23.136;2023-11-21T04:58:15;97799.13;;;7.68;100.00
46722;BME280;32455;43.430;23.136;2023-11-21T05:01:00;97796.06;;;7.71;100.00
46722;BME280;32455;43.430;23.136;2023-11-21T05:03:46;97801.88;;;7.55;100.00
46722;BME280;32455;43.430;23.136;2023-11-21T05:06:32;97804.97;;;7.52;100.00
46722;BME280;32455;43.430;23.136;2023-11-21T05:09:18;97806.00;;;7.44;100.00
46722;BME280;32455;43.430;23.136;2023-11-21T05:12:03;97801.75;;;7.37;100.00
46722;BME280;32455;43.430;23.136;2023-11-21T05:14:50;97800.53;;;7.26;100.00
46722;BME280;32455;43.430;23.136;2023-11-21T05:17:36;97804.97;;;7.52;100.00
46722;BME280;32455;43.430;23.136;2023-11-21T05:20:22;97792.56;;;7.71;100.00
46722;BME280;32455;43.430;23.136;2023-11-21T05:23:08;97805.38;;;7.56;100.00
46722;BME280;32455;43.430;23.136;2023-11-21T05:25:53;97804.16;;;7.45;100.00
46722;BME280;32455;43.430;23.136;2023-11-21T05:28:38;97808.00;;;7.62;100.00
46722;BME280;32455;43.430;23.136;2023-11-21T05:31:23;97801.72;;;7.88;100.00
46722;BME280;32455;43.430;23.136;2023-11-21T05:34:08;97804.13;;;7.96;100.00
46722;BME280;32455;43.430;23.136;2023-11-21T05:36:52;97822.63;;;8.36;100.00
46722;BME280;32455;43.430;23.136;2023-11-21T05:39:38;97809.03;;;8.38;100.00
46722;BME280;32455;43.430;23.136;2023-11-21T05:42:23;97804.31;;;8.40;100.00
46722;BME280;32455;43.430;23.136;2023-11-21T05:45:09;97804.88;;;8.42;100.00
46722;BME280;32455;43.430;23.136;2023-11-21T05:47:55;97815.63;;;8.35;100.00
46722;BME280;32455;43.430;23.136;2023-11-21T05:50:41;97811.09;;;8.36;100.00
46722;BME280;32455;43.430;23.136;2023-11-21T05:53:26;97805.66;;;8.49;100.00
46722;BME280;32455;43.430;23.136;2023-11-21T05:56:11;97806.22;;;8.58;100.00
46722;BME280;32455;43.430;23.136;2023-11-21T05:58:58;97807.06;;;8.51;100.00
46722;BME280;32455;43.430;23.136;2023-11-21T06:01:43;97819.88;;;8.49;100.00
46722;BME280;32455;43.430;23.136;2023-11-21T06:04:30;97816.84;;;8.64;100.00
46722;BME280;32455;43.430;23.136;2023-11-21T06:07:16;97823.03;;;8.90;100.00
46722;BME280;32455;43.430;23.136;2023-11-21T06:10:02;97821.88;;;9.04;100.00
46722;BME280;32455;43.430;23.136;2023-11-21T06:12:52;97810.41;;;9.15;98.50
46722;BME280;32455;43.430;23.136;2023-11-21T06:15:37;97824.19;;;9.37;97.52
46722;BME280;32455;43.430;23.136;2023-11-21T06:18:22;97824.34;;;9.61;96.31
46722;BME280;32455;43.430;23.136;2023-11-21T06:21:11;97808.16;;;9.67;94.19
46722;BME280;32455;43.430;23.136;2023-11-21T06:23:57;97815.50;;;9.90;93.67
46722;BME280;32455;43.430;23.136;2023-11-21T06:26:43;97822.31;;;10.04;91.40
46722;BME280;32455;43.430;23.136;2023-11-21T06:29:29;97808.41;;;9.96;93.13
46722;BME280;32455;43.430;23.136;2023-11-21T06:32:14;97809.78;;;9.87;93.63
46722;BME280;32455;43.430;23.136;2023-11-21T06:35:01;97821.69;;;9.91;94.55
46722;BME280;32455;43.430;23.136;2023-11-21T06:37:46;97818.31;;;9.95;93.91
46722;BME280;32455;43.430;23.136;2023-11-21T06:40:35;97821.88;;;10.08;93.16
46722;BME280;32455;43.430;23.136;2023-11-21T06:43:21;97812.31;;;10.12;91.09
46722;BME280;32455;43.430;23.136;2023-11-21T06:46:07;97829.22;;;10.31;90.50
46722;BME280;32455;43.430;23.136;2023-11-21T06:48:52;97828.66;;;10.40;90.49
46722;BME280;32455;43.430;23.136;2023-11-21T06:51:37;97813.72;;;10.44;87.90
46722;BME280;32455;43.430;23.136;2023-11-21T06:54:23;97816.09;;;10.64;89.39
46722;BME280;32455;43.430;23.136;2023-11-21T06:57:08;97808.38;;;10.68;88.47
46722;BME280;32455;43.430;23.136;2023-11-21T06:59:53;97820.78;;;10.81;87.90
46722;BME280;32455;43.430;23.136;2023-11-21T07:02:39;97811.41;;;10.83;87.51
46722;BME280;32455;43.430;23.136;2023-11-21T07:05:25;97830.59;;;10.98;85.57
46722;BME280;32455;43.430;23.136;2023-11-21T07:08:10;97825.34;;;10.92;87.33
46722;BME280;32455;43.430;23.136;2023-11-21T07:10:55;97819.38;;;10.78;87.10
46722;BME280;32455;43.430;23.136;2023-11-21T07:13:41;97823.69;;;10.91;86.04
46722;BME280;32455;43.430;23.136;2023-11-21T07:16:26;97822.19;;;10.95;86.46
46722;BME280;32455;43.430;23.136;2023-11-21T07:19:11;97814.94;;;10.95;86.91
46722;BME280;32455;43.430;23.136;2023-11-21T07:21:56;97820.56;;;11.06;86.38
46722;BME280;32455;43.430;23.136;2023-11-21T07:24:43;97820.88;;;11.21;85.55
46722;BME280;32455;43.430;23.136;2023-11-21T07:27:28;97810.28;;;11.14;84.23
46722;BME280;32455;43.430;23.136;2023-11-21T07:30:13;97812.91;;;11.38;84.15
46722;BME280;32455;43.430;23.136;2023-11-21T07:32:59;97826.25;;;11.44;81.27
46722;BME280;32455;43.430;23.136;2023-11-21T07:35:44;97826.59;;;11.48;82.41
46722;BME280;32455;43.430;23.136;2023-11-21T07:38:30;97820.53;;;11.41;82.79
46722;BME280;32455;43.430;23.136;2023-11-21T07:41:16;97816.78;;;11.42;81.87
46722;BME280;32455;43.430;23.136;2023-11-21T07:44:02;97813.53;;;11.40;82.02
46722;BME280;32455;43.430;23.136;2023-11-21T07:46:48;97818.28;;;11.49;82.65
46722;BME280;32455;43.430;23.136;2023-11-21T07:49:34;97815.59;;;11.61;81.37
46722;BME280;32455;43.430;23.136;2023-11-21T07:52:20;97808.53;;;11.60;82.62
46722;BME280;32455;43.430;23.136;2023-11-21T07:55:06;97788.75;;;11.66;79.12
46722;BME280;32455;43.430;23.136;2023-11-21T07:57:52;97813.66;;;11.85;78.90
46722;BME280;32455;43.430;23.136;2023-11-21T08:00:38;97811.91;;;11.91;78.81
46722;BME280;32455;43.430;23.136;2023-11-21T08:03:24;97800.63;;;11.94;79.71
46722;BME280;32455;43.430;23.136;2023-11-21T08:06:11;97791.69;;;12.05;78.72
46722;BME280;32455;43.430;23.136;2023-11-21T08:08:57;97797.75;;;12.12;78.42
46722;BME280;32455;43.430;23.136;2023-11-21T08:11:43;97795.63;;;12.14;77.14
46722;BME280;32455;43.430;23.136;2023-11-21T08:14:28;97800.91;;;12.09;77.08
46722;BME280;32455;43.430;23.136;2023-11-21T08:17:13;97809.69;;;12.16;76.08
46722;BME280;32455;43.430;23.136;2023-11-21T08:19:59;97808.31;;;12.31;78.06
46722;BME280;32455;43.430;23.136;2023-11-21T08:22:45;97809.69;;;12.33;78.83
46722;BME280;32455;43.430;23.136;2023-11-21T08:25:32;97807.59;;;12.52;76.63
46722;BME280;32455;43.430;23.136;2023-11-21T08:28:20;97813.47;;;12.66;74.43
46722;BME280;32455;43.430;23.136;2023-11-21T08:31:07;97797.38;;;12.88;74.69
46722;BME280;32455;43.430;23.136;2023-11-21T08:33:52;97795.94;;;13.19;70.14
46722;BME280;32455;43.430;23.136;2023-11-21T08:36:43;97792.00;;;13.43;71.28
46722;BME280;32455;43.430;23.136;2023-11-21T08:39:28;97793.44;;;13.51;70.03
46722;BME280;32455;43.430;23.136;2023-11-21T08:42:15;97787.88;;;13.58;67.32
46722;BME280;32455;43.430;23.136;2023-11-21T08:45:01;97798.78;;;13.68;67.54
46722;BME280;32455;43.430;23.136;2023-11-21T08:47:46;97790.56;;;13.80;66.70
46722;BME280;32455;43.430;23.136;2023-11-21T08:50:32;97790.06;;;14.10;64.75
46722;BME280;32455;43.430;23.136;2023-11-21T08:53:17;97789.25;;;14.09;64.43
46722;BME280;32455;43.430;23.136;2023-11-21T08:56:02;97788.50;;;14.14;64.60
46722;BME280;32455;43.430;23.136;2023-11-21T08:58:49;97774.44;;;14.17;59.80
46722;BME280;32455;43.430;23.136;2023-11-21T09:01:34;97774.81;;;14.25;60.92
46722;BME280;32455;43.430;23.136;2023-11-21T09:04:19;97774.56;;;14.27;58.20
46722;BME280;32455;43.430;23.136;2023-11-21T09:07:03;97765.19;;;14.35;57.80
46722;BME280;32455;43.430;23.136;2023-11-21T09:09:49;97756.00;;;14.36;58.65
46722;BME280;32455;43.430;23.136;2023-11-21T09:12:35;97741.47;;;14.47;59.59
46722;BME280;32455;43.430;23.136;2023-11-21T09:15:22;97744.94;;;14.69;58.83
46722;BME280;32455;43.430;23.136;2023-11-21T09:18:08;97738.47;;;14.70;56.46
46722;BME280;32455;43.430;23.136;2023-11-21T09:20:53;97722.25;;;14.75;56.84
46722;BME280;32455;43.430;23.136;2023-11-21T09:23:39;97742.34;;;14.90;55.87
46722;BME280;32455;43.430;23.136;2023-11-21T09:26:25;97727.47;;;14.87;55.84
46722;BME280;32455;43.430;23.136;2023-11-21T09:29:11;97712.34;;;14.86;55.29
46722;BME280;32455;43.430;23.136;2023-11-21T09:31:56;97703.69;;;14.89;54.57
46722;BME280;32455;43.430;23.136;2023-11-21T09:34:44;97687.41;;;14.84;55.87
46722;BME280;32455;43.430;23.136;2023-11-21T09:37:31;97687.22;;;14.96;55.28
46722;BME280;32455;43.430;23.136;2023-11-21T09:40:21;97663.66;;;14.91;55.85
46722;BME280;32455;43.430;23.136;2023-11-21T09:43:16;97674.06;;;15.20;55.90
46722;BME280;32455;43.430;23.136;2023-11-21T09:46:06;97646.75;;;15.21;56.87
46722;BME280;32455;43.430;23.136;2023-11-21T09:48:59;97640.31;;;15.38;56.10
46722;BME280;32455;43.430;23.136;2023-11-21T09:51:46;97646.81;;;15.47;54.70
46722;BME280;32455;43.430;23.136;2023-11-21T09:54:33;97644.13;;;15.52;55.79
46722;BME280;32455;43.430;23.136;2023-11-21T09:57:23;97644.13;;;15.52;55.40
46722;BME280;32455;43.430;23.136;2023-11-21T10:00:10;97641.69;;;15.50;56.88
46722;BME280;32455;43.430;23.136;2023-11-21T10:02:58;97636.28;;;15.56;58.61
46722;BME280;32455;43.430;23.136;2023-11-21T10:05:44;97630.59;;;15.57;57.38
46722;BME280;32455;43.430;23.136;2023-11-21T10:08:33;97627.13;;;15.72;60.13
46722;BME280;32455;43.430;23.136;2023-11-21T10:11:19;97630.38;;;15.69;61.91
46722;BME280;32455;43.430;23.136;2023-11-21T10:14:05;97625.94;;;15.37;61.81
46722;BME280;32455;43.430;23.136;2023-11-21T10:16:50;97628.91;;;15.36;60.31
46722;BME280;32455;43.430;23.136;2023-11-21T10:19:36;97615.66;;;15.29;60.44
46722;BME280;32455;43.430;23.136;2023-11-21T10:22:23;97608.63;;;15.43;60.88
46722;BME280;32455;43.430;23.136;2023-11-21T10:25:12;97602.94;;;15.40;58.41
46722;BME280;32455;43.430;23.136;2023-11-21T10:28:06;97600.78;;;15.47;60.80
46722;BME280;32455;43.430;23.136;2023-11-21T10:30:51;97592.13;;;15.50;61.02
46722;BME280;32455;43.430;23.136;2023-11-21T10:33:37;97578.84;;;15.53;62.32
46722;BME280;32455;43.430;23.136;2023-11-21T10:36:27;97579.94;;;15.63;59.30
46722;BME280;32455;43.430;23.136;2023-11-21T10:39:22;97585.38;;;15.63;57.83
46722;BME280;32455;43.430;23.136;2023-11-21T10:42:08;97582.38;;;15.49;56.46
46722;BME280;32455;43.430;23.136;2023-11-21T10:44:55;97578.59;;;15.55;58.37
46722;BME280;32455;43.430;23.136;2023-11-21T10:47:42;97573.16;;;15.50;59.54
46722;BME280;32455;43.430;23.136;2023-11-21T10:50:27;97561.00;;;15.47;61.54
46722;BME280;32455;43.430;23.136;2023-11-21T10:53:13;97548.22;;;15.27;65.47
46722;BME280;32455;43.430;23.136;2023-11-21T10:56:06;97556.09;;;15.29;67.76
46722;BME280;32455;43.430;23.136;2023-11-21T10:58:52;97539.25;;;15.07;68.83
46722;BME280;32455;43.430;23.136;2023-11-21T11:01:39;97550.28;;;14.90;69.07
46722;BME280;32455;43.430;23.136;2023-11-21T11:04:27;97547.13;;;15.18;67.42
46722;BME280;32455;43.430;23.136;2023-11-21T11:07:13;97548.75;;;15.24;67.67
46722;BME280;32455;43.430;23.136;2023-11-21T11:10:01;97537.66;;;15.16;67.24
46722;BME280;32455;43.430;23.136;2023-11-21T11:12:48;97547.38;;;15.07;71.13
46722;BME280;32455;43.430;23.136;2023-11-21T11:15:34;97537.91;;;15.14;65.46
46722;BME280;32455;43.430;23.136;2023-11-21T11:18:19;97538.19;;;15.08;65.31
46722;BME280;32455;43.430;23.136;2023-11-21T11:21:14;97538.78;;;15.25;63.94
46722;BME280;32455;43.430;23.136;2023-11-21T11:24:18;97539.59;;;15.31;65.93
46722;BME280;32455;43.430;23.136;2023-11-21T11:27:40;97549.88;;;15.34;67.53
46722;BME280;32455;43.430;23.136;2023-11-21T11:33:55;97534.34;;;14.98;71.82
46722;BME280;32455;43.430;23.136;2023-11-21T11:37:01;97540.91;;;15.08;69.75
46722;BME280;32455;43.430;23.136;2023-11-21T11:39:49;97532.75;;;15.02;72.05
46722;BME280;32455;43.430;23.136;2023-11-21T11:42:34;97538.16;;;15.02;73.59
46722;BME280;32455;43.430;23.136;2023-11-21T11:45:20;97527.38;;;15.08;74.38
46722;BME280;32455;43.430;23.136;2023-11-21T11:48:05;97525.44;;;15.03;74.33
46722;BME280;32455;43.430;23.136;2023-11-21T11:51:11;97518.13;;;14.98;75.05
46722;BME280;32455;43.430;23.136;2023-11-21T11:53:59;97518.69;;;14.95;73.31
46722;BME280;32455;43.430;23.136;2023-11-21T11:56:44;97513.00;;;14.97;69.73
46722;BME280;32455;43.430;23.136;2023-11-21T11:59:30;97507.00;;;14.90;69.18
46722;BME280;32455;43.430;23.136;2023-11-21T12:02:25;97508.38;;;14.97;68.61
46722;BME280;32455;43.430;23.136;2023-11-21T12:05:12;97514.59;;;14.98;68.92
46722;BME280;32455;43.430;23.136;2023-11-21T12:08:01;97519.72;;;14.94;68.52
46722;BME280;32455;43.430;23.136;2023-11-21T12:10:47;97511.88;;;14.88;65.83
46722;BME280;32455;43.430;23.136;2023-11-21T12:13:34;97510.00;;;14.98;65.07
46722;BME280;32455;43.430;23.136;2023-11-21T12:16:19;97507.59;;;14.97;65.98
46722;BME280;32455;43.430;23.136;2023-11-21T12:19:05;97496.72;;;14.82;76.75
46722;BME280;32455;43.430;23.136;2023-11-21T12:21:51;97499.09;;;14.68;79.42
46722;BME280;32455;43.430;23.136;2023-11-21T12:24:37;97476.38;;;14.64;75.47
46722;BME280;32455;43.430;23.136;2023-11-21T12:27:22;97498.06;;;14.69;75.54
46722;BME280;32455;43.430;23.136;2023-11-21T12:30:08;97472.84;;;14.58;75.62
46722;BME280;32455;43.430;23.136;2023-11-21T12:32:59;97493.16;;;14.61;76.75
46722;BME280;32455;43.430;23.136;2023-11-21T12:35:45;97491.78;;;14.58;75.46
46722;BME280;32455;43.430;23.136;2023-11-21T12:38:36;97496.16;;;14.69;76.28
46722;BME280;32455;43.430;23.136;2023-11-21T12:41:22;97492.88;;;14.62;77.22
46722;BME280;32455;43.430;23.136;2023-11-21T12:44:11;97502.88;;;14.62;77.29
46722;BME280;32455;43.430;23.136;2023-11-21T12:46:56;97503.94;;;14.56;77.59
46722;BME280;32455;43.430;23.136;2023-11-21T12:49:42;97508.53;;;14.60;77.97
46722;BME280;32455;43.430;23.136;2023-11-21T12:52:29;97498.78;;;14.54;80.65
46722;BME280;32455;43.430;23.136;2023-11-21T12:55:18;97504.63;;;14.31;83.75
46722;BME280;32455;43.430;23.136;2023-11-21T12:58:07;97485.16;;;14.34;85.11
46722;BME280;32455;43.430;23.136;2023-11-21T13:00:59;97505.31;;;14.11;88.80
46722;BME280;32455;43.430;23.136;2023-11-21T13:03:47;97498.75;;;13.96;90.39
46722;BME280;32455;43.430;23.136;2023-11-21T13:06:35;97493.22;;;13.76;90.50
46722;BME280;32455;43.430;23.136;2023-11-21T13:09:26;97486.19;;;13.75;86.85
46722;BME280;32455;43.430;23.136;2023-11-21T13:12:12;97503.09;;;13.60;79.10
46722;BME280;32455;43.430;23.136;2023-11-21T13:15:04;97481.94;;;13.20;78.31
46722;BME280;32455;43.430;23.136;2023-11-21T13:17:51;97504.22;;;13.32;78.01
46722;BME280;32455;43.430;23.136;2023-11-21T13:20:40;97508.44;;;13.23;78.81
46722;BME280;32455;43.430;23.136;2023-11-21T13:23:26;97507.50;;;13.39;80.86
46722;BME280;32455;43.430;23.136;2023-11-21T13:26:12;97500.63;;;12.99;81.97
46722;BME280;32455;43.430;23.136;2023-11-21T13:28:58;97508.19;;;12.75;84.91
46722;BME280;32455;43.430;23.136;2023-11-21T13:31:44;97506.09;;;12.56;87.14
46722;BME280;32455;43.430;23.136;2023-11-21T13:34:30;97511.53;;;12.61;86.07
46722;BME280;32455;43.430;23.136;2023-11-21T13:37:15;97498.94;;;12.44;88.47
46722;BME280;32455;43.430;23.136;2023-11-21T13:40:00;97505.13;;;12.45;91.39
46722;BME280;32455;43.430;23.136;2023-11-21T13:42:55;97510.59;;;12.28;95.92
46722;BME280;32455;43.430;23.136;2023-11-21T13:45:45;97508.56;;;12.18;97.79
46722;BME280;32455;43.430;23.136;2023-11-21T13:48:31;97496.59;;;12.09;100.00
46722;BME280;32455;43.430;23.136;2023-11-21T13:51:36;97509.91;;;11.99;100.00
46722;BME280;32455;43.430;23.136;2023-11-21T13:54:33;97503.97;;;11.80;100.00
46722;BME280;32455;43.430;23.136;2023-11-21T13:57:18;97506.75;;;11.68;100.00
46722;BME280;32455;43.430;23.136;2023-11-21T14:00:06;97498.19;;;11.54;100.00
46722;BME280;32455;43.430;23.136;2023-11-21T14:02:55;97502.69;;;11.66;100.00
46722;BME280;32455;43.430;23.136;2023-11-21T14:05:45;97505.84;;;11.29;100.00
46722;BME280;32455;43.430;23.136;2023-11-21T14:08:33;97508.13;;;11.20;100.00
46722;BME280;32455;43.430;23.136;2023-11-21T14:11:18;97499.16;;;11.15;100.00
46722;BME280;32455;43.430;23.136;2023-11-21T14:14:06;97510.38;;;10.66;100.00
46722;BME280;32455;43.430;23.136;2023-11-21T14:16:55;97518.44;;;10.66;100.00
46722;BME280;32455;43.430;23.136;2023-11-21T14:19:51;97522.06;;;10.60;100.00
46722;BME280;32455;43.430;23.136;2023-11-21T14:22:37;97524.50;;;10.62;100.00
46722;BME280;32455;43.430;23.136;2023-11-21T14:25:22;97517.28;;;9.98;100.00
46722;BME280;32455;43.430;23.136;2023-11-21T14:28:06;97521.94;;;9.68;100.00
46722;BME280;32455;43.430;23.136;2023-11-21T14:30:51;97515.16;;;9.65;100.00
46722;BME280;32455;43.430;23.136;2023-11-21T14:33:37;97523.44;;;9.75;100.00
46722;BME280;32455;43.430;23.136;2023-11-21T14:36:22;97517.75;;;9.60;100.00